createdAt,value
2018-06-02T00:01:45.804Z,99423.34
2018-06-02T00:04:15.397Z,99426.23
2018-06-02T00:06:44.959Z,99428.22
2018-06-02T00:09:14.572Z,99424.16
2018-06-02T00:11:44.153Z,99424.39
2018-06-02T00:14:13.709Z,99421.23
2018-06-02T00:16:43.264Z,99416.07
2018-06-02T00:19:12.858Z,99404.98
2018-06-02T00:21:42.410Z,99403.32
2018-06-02T00:24:12.006Z,99405.45
2018-06-02T00:26:41.572Z,99404.36
2018-06-02T00:29:11.134Z,99404.56
2018-06-02T00:31:40.754Z,99397.15
2018-06-02T00:34:10.322Z,99404.41
2018-06-02T00:36:39.912Z,99396.27
2018-06-02T00:39:09.252Z,99399.54
2018-06-02T00:41:38.647Z,99396.27
2018-06-02T00:44:07.991Z,99404.34
2018-06-02T00:46:37.675Z,99403.84
2018-06-02T00:49:06.920Z,99407.08
2018-06-02T00:51:36.494Z,99403.97
2018-06-02T00:54:06.056Z,99402.08
2018-06-02T00:56:35.627Z,99407.97
2018-06-02T00:59:05.335Z,99395.95
2018-06-02T01:01:34.892Z,99400.72
2018-06-02T01:04:04.253Z,99397.98
2018-06-02T01:06:33.617Z,99396.34
2018-06-02T01:09:03.192Z,99394.50
2018-06-02T01:11:32.551Z,99392.42
2018-06-02T01:14:02.131Z,99390.65
2018-06-02T01:16:31.502Z,99396.54
2018-06-02T01:19:00.840Z,99396.54
2018-06-02T01:21:30.207Z,99400.59
2018-06-02T01:23:59.842Z,99398.44
2018-06-02T01:26:29.440Z,99398.78
2018-06-02T01:28:59.011Z,99393.99
2018-06-02T01:31:28.673Z,99389.54
2018-06-02T01:33:58.268Z,99390.70
2018-06-02T01:36:27.842Z,99386.48
2018-06-02T01:38:57.396Z,99393.11
2018-06-02T01:41:26.719Z,99391.97
2018-06-02T01:43:56.075Z,99395.84
2018-06-02T01:46:25.747Z,99393.61
2018-06-02T01:48:55.378Z,99393.92
2018-06-02T01:51:24.946Z,99398.52
2018-06-02T01:53:54.532Z,99386.25
2018-06-02T01:56:24.083Z,99388.10
2018-06-02T01:58:53.675Z,99384.95
2018-06-02T02:01:23.236Z,99383.94
2018-06-02T02:03:52.796Z,99391.04
2018-06-02T02:06:22.412Z,99388.03
2018-06-02T02:08:51.981Z,99393.70
2018-06-02T02:11:21.607Z,99390.51
2018-06-02T02:13:53.021Z,99388.16
2018-06-02T02:16:22.598Z,99387.89
2018-06-02T02:18:51.923Z,99390.82
2018-06-02T02:21:21.394Z,99394.23
2018-06-02T02:23:50.969Z,99392.80
2018-06-02T02:26:20.528Z,99392.67
2018-06-02T02:28:50.101Z,99397.98
2018-06-02T02:31:19.682Z,99389.72
2018-06-02T02:33:49.235Z,99393.23
2018-06-02T02:36:18.944Z,99391.86
2018-06-02T02:38:48.344Z,99392.73
2018-06-02T02:41:17.707Z,99390.05
2018-06-02T02:43:47.268Z,99394.36
2018-06-02T02:46:17.009Z,99390.52
2018-06-02T02:48:46.562Z,99395.17
2018-06-02T02:51:16.127Z,99390.66
2018-06-02T02:53:45.696Z,99391.30
2018-06-02T02:56:15.411Z,99394.16
2018-06-02T02:58:45.198Z,99388.54
2018-06-02T03:01:14.747Z,99395.03
2018-06-02T03:03:44.336Z,99395.08
2018-06-02T03:06:13.919Z,99400.32
2018-06-02T03:08:43.488Z,99394.02
2018-06-02T03:11:13.802Z,99397.81
2018-06-02T03:13:43.360Z,99399.58
2018-06-02T03:16:13.010Z,99400.32
2018-06-02T03:18:42.563Z,99392.29
2018-06-02T03:21:12.136Z,99400.34
2018-06-02T03:23:41.692Z,99401.06
2018-06-02T03:26:11.248Z,99400.60
2018-06-02T03:28:40.818Z,99406.62
2018-06-02T03:31:10.381Z,99413.89
2018-06-02T03:33:39.949Z,99405.08
2018-06-02T03:36:09.534Z,99402.80
2018-06-02T03:38:39.092Z,99410.32
2018-06-02T03:41:08.648Z,99415.39
2018-06-02T03:43:38.217Z,99413.70
2018-06-02T03:46:07.808Z,99421.83
2018-06-02T03:48:37.415Z,99416.45
2018-06-02T03:51:07.048Z,99422.74
2018-06-02T03:53:36.606Z,99427.41
2018-06-02T03:56:06.164Z,99421.91
2018-06-02T03:58:35.749Z,99422.36
2018-06-02T04:01:05.458Z,99422.55
2018-06-02T04:03:35.192Z,99430.58
2018-06-02T04:06:04.739Z,99421.86
2018-06-02T04:08:34.303Z,99427.70
2018-06-02T04:11:03.871Z,99422.00
2018-06-02T04:13:35.371Z,99421.41
2018-06-02T04:16:04.709Z,99419.96
2018-06-02T04:18:34.275Z,99421.28
2018-06-02T04:21:03.612Z,99424.55
2018-06-02T04:23:33.252Z,99428.34
2018-06-02T04:26:02.577Z,99425.45
2018-06-02T04:28:32.148Z,99426.96
2018-06-02T04:31:01.727Z,99427.80
2018-06-02T04:33:31.281Z,99428.12
2018-06-02T04:36:00.859Z,99426.89
2018-06-02T04:38:30.475Z,99433.49
2018-06-02T04:41:00.020Z,99428.13
2018-06-02T04:43:29.595Z,99438.95
2018-06-02T04:45:59.173Z,99440.84
2018-06-02T04:48:29.034Z,99436.39
2018-06-02T04:50:58.603Z,99445.15
2018-06-02T04:53:28.177Z,99444.73
2018-06-02T04:55:57.722Z,99448.12
2018-06-02T04:58:27.398Z,99445.30
2018-06-02T05:00:56.968Z,99449.22
2018-06-02T05:03:26.531Z,99450.71
2018-06-02T05:05:56.201Z,99446.34
2018-06-02T05:08:25.897Z,99446.34
2018-06-02T05:10:55.448Z,99450.73
2018-06-02T05:13:25.009Z,99455.99
2018-06-02T05:15:54.723Z,99451.55
2018-06-02T05:18:24.300Z,99455.64
2018-06-02T05:20:53.992Z,99453.34
2018-06-02T05:23:23.545Z,99458.74
2018-06-02T05:25:53.098Z,99464.67
2018-06-02T05:28:22.678Z,99462.45
2018-06-02T05:30:52.266Z,99459.77
2018-06-02T05:33:22.100Z,99463.64
2018-06-02T05:35:51.717Z,99470.30
2018-06-02T05:38:21.301Z,99470.64
2018-06-02T05:40:50.859Z,99472.55
2018-06-02T05:43:20.208Z,99466.60
2018-06-02T05:45:49.787Z,99468.52
2018-06-02T05:48:19.339Z,99468.79
2018-06-02T05:50:48.928Z,99466.88
2018-06-02T05:53:18.532Z,99470.06
2018-06-02T05:55:48.087Z,99476.72
2018-06-02T05:58:17.681Z,99482.83
2018-06-02T06:00:47.251Z,99476.17
2018-06-02T06:03:17.298Z,99475.73
2018-06-02T06:05:46.879Z,99479.45
2018-06-02T06:08:16.533Z,99480.97
2018-06-02T06:10:46.091Z,99477.93
2018-06-02T06:13:15.644Z,99481.09
2018-06-02T06:15:45.267Z,99485.73
2018-06-02T06:18:14.869Z,99481.20
2018-06-02T06:20:44.434Z,99484.96
2018-06-02T06:23:13.998Z,99475.59
2018-06-02T06:25:43.550Z,99479.97
2018-06-02T06:28:13.153Z,99474.76
2018-06-02T06:30:42.740Z,99485.47
2018-06-02T06:33:12.353Z,99483.55
2018-06-02T06:35:42.059Z,99483.16
2018-06-02T06:38:11.620Z,99482.72
2018-06-02T06:40:41.170Z,99475.64
2018-06-02T06:43:10.718Z,99474.70
2018-06-02T06:45:40.301Z,99479.43
2018-06-02T06:48:09.951Z,99471.93
2018-06-02T06:50:39.525Z,99484.16
2018-06-02T06:53:09.277Z,99480.59
2018-06-02T06:55:38.881Z,99474.95
2018-06-02T06:58:08.440Z,99473.24
2018-06-02T07:00:38.001Z,99474.17
2018-06-02T07:03:07.580Z,99471.48
2018-06-02T07:05:37.145Z,99465.54
2018-06-02T07:08:06.703Z,99474.16
2018-06-02T07:10:36.011Z,99470.30
2018-06-02T07:13:05.597Z,99472.92
2018-06-02T07:15:35.148Z,99474.55
2018-06-02T07:18:04.717Z,99482.23
2018-06-02T07:20:34.279Z,99472.36
2018-06-02T07:23:03.828Z,99476.45
2018-06-02T07:25:33.414Z,99478.86
2018-06-02T07:28:03.117Z,99475.77
2018-06-02T07:30:32.655Z,99477.14
2018-06-02T07:33:02.219Z,99470.10
2018-06-02T07:35:31.808Z,99470.65
2018-06-02T07:38:01.625Z,99476.58
2018-06-02T07:40:31.166Z,99479.18
2018-06-02T07:43:00.757Z,99478.77
2018-06-02T07:45:30.375Z,99473.40
2018-06-02T07:47:59.915Z,99474.00
2018-06-02T07:50:29.756Z,99470.12
2018-06-02T07:52:59.308Z,99486.75
2018-06-02T07:55:28.866Z,99486.75
2018-06-02T07:57:58.440Z,99491.73
2018-06-02T08:00:28.059Z,99484.28
2018-06-02T08:02:57.631Z,99485.31
2018-06-02T08:05:27.873Z,99486.94
2018-06-02T08:07:57.435Z,99497.63
2018-06-02T08:10:27.056Z,99501.00
2018-06-02T08:12:56.634Z,99496.16
2018-06-02T08:15:26.180Z,99504.09
2018-06-02T08:17:55.518Z,99505.47
2018-06-02T08:20:25.071Z,99514.25
2018-06-02T08:22:54.393Z,99513.28
2018-06-02T08:25:23.959Z,99523.23
2018-06-02T08:27:53.562Z,99523.64
2018-06-02T08:30:23.167Z,99518.04
2018-06-02T08:32:52.722Z,99527.16
2018-06-02T08:35:22.285Z,99525.45
2018-06-02T08:37:51.849Z,99523.01
2018-06-02T08:40:21.402Z,99522.99
2018-06-02T08:42:50.972Z,99517.48
2018-06-02T08:45:20.534Z,99519.03
2018-06-02T08:47:50.083Z,99524.70
2018-06-02T08:50:19.658Z,99526.16
2018-06-02T08:52:49.200Z,99520.58
2018-06-02T08:55:18.789Z,99521.54
2018-06-02T08:57:48.358Z,99517.15
2018-06-02T09:00:17.914Z,99525.59
2018-06-02T09:02:47.518Z,99529.54
2018-06-02T09:05:17.128Z,99517.23
2018-06-02T09:07:47.025Z,99527.64
2018-06-02T09:10:16.687Z,99512.04
2018-06-02T09:12:46.279Z,99521.39
2018-06-02T09:15:15.901Z,99522.13
2018-06-02T09:17:45.451Z,99521.56
2018-06-02T09:20:15.036Z,99522.90
2018-06-02T09:22:44.267Z,99516.81
2018-06-02T09:25:13.834Z,99517.73
2018-06-02T09:27:43.428Z,99506.30
2018-06-02T09:30:13.143Z,99502.55
2018-06-02T09:32:42.719Z,99501.93
2018-06-02T09:35:12.141Z,99494.11
2018-06-02T09:37:41.879Z,99495.38
2018-06-02T09:40:11.436Z,99503.71
2018-06-02T09:42:40.989Z,99490.34
2018-06-02T09:45:10.613Z,99489.67
2018-06-02T09:47:40.225Z,99485.80
2018-06-02T09:50:09.977Z,99484.69
2018-06-02T09:52:39.594Z,99481.20
2018-06-02T09:55:09.342Z,99486.81
2018-06-02T09:57:38.935Z,99474.06
2018-06-02T10:00:08.646Z,99469.95
2018-06-02T10:02:38.211Z,99466.73
2018-06-02T10:05:07.765Z,99468.95
2018-06-02T10:07:37.406Z,99469.65
2018-06-02T10:10:07.298Z,99471.32
2018-06-02T10:12:37.020Z,99470.93
2018-06-02T10:15:06.559Z,99473.16
2018-06-02T10:17:36.110Z,99465.05
2018-06-02T10:20:05.701Z,99476.25
2018-06-02T10:22:35.356Z,99476.66
2018-06-02T10:25:04.978Z,99484.19
2018-06-02T10:27:34.540Z,99487.62
2018-06-02T10:30:04.227Z,99476.75
2018-06-02T10:32:33.834Z,99499.38
2018-06-02T10:35:03.416Z,99504.17
2018-06-02T10:37:32.955Z,99491.84
2018-06-02T10:40:02.515Z,99487.61
2018-06-02T10:42:32.075Z,99494.22
2018-06-02T10:45:01.654Z,99491.05
2018-06-02T10:47:31.281Z,99484.94
2018-06-02T10:50:00.849Z,99492.27
2018-06-02T10:52:30.469Z,99492.88
2018-06-02T10:55:00.068Z,99491.56
2018-06-02T10:57:29.622Z,99489.72
2018-06-02T10:59:59.232Z,99497.13
2018-06-02T11:02:28.800Z,99494.97
2018-06-02T11:04:58.497Z,99502.44
2018-06-02T11:07:28.212Z,99485.30
2018-06-02T11:09:57.553Z,99481.36
2018-06-02T11:12:27.267Z,99480.71
2018-06-02T11:14:56.941Z,99473.51
2018-06-02T11:17:26.491Z,99485.09
2018-06-02T11:19:56.038Z,99468.33
2018-06-02T11:22:25.611Z,99464.85
2018-06-02T11:24:55.772Z,99468.92
2018-06-02T11:27:25.349Z,99465.20
2018-06-02T11:29:54.979Z,99473.30
2018-06-02T11:32:24.531Z,99463.64
2018-06-02T11:34:54.101Z,99479.87
2018-06-02T11:37:23.679Z,99468.11
2018-06-02T11:39:53.234Z,99459.15
2018-06-02T11:42:22.823Z,99472.96
2018-06-02T11:44:52.405Z,99463.67
2018-06-02T11:47:21.987Z,99465.71
2018-06-02T11:49:51.539Z,99450.23
2018-06-02T11:52:21.213Z,99457.08
2018-06-02T11:54:50.783Z,99438.73
2018-06-02T11:57:20.347Z,99438.72
2018-06-02T11:59:49.907Z,99429.36
2018-06-02T12:02:19.462Z,99438.80
2018-06-02T12:04:49.026Z,99437.03
2018-06-02T12:07:18.597Z,99433.28
2018-06-02T12:09:48.153Z,99433.28
2018-06-02T12:12:17.699Z,99433.36
2018-06-02T12:14:47.278Z,99428.54
2018-06-02T12:17:16.833Z,99419.09
2018-06-02T12:19:46.413Z,99423.58
2018-06-02T12:22:15.983Z,99424.41
2018-06-02T12:24:45.556Z,99419.84
2018-06-02T12:27:15.123Z,99421.63
2018-06-02T12:29:44.741Z,99414.58
2018-06-02T12:32:14.303Z,99402.58
2018-06-02T12:34:43.939Z,99411.20
2018-06-02T12:37:13.697Z,99405.03
2018-06-02T12:39:43.396Z,99410.99
2018-06-02T12:42:13.155Z,99403.84
2018-06-02T12:44:42.737Z,99412.38
2018-06-02T12:47:12.342Z,99400.73
2018-06-02T12:49:41.887Z,99394.08
2018-06-02T12:52:11.147Z,99397.23
2018-06-02T12:54:40.791Z,99391.73
2018-06-02T12:57:10.350Z,99390.16
2018-06-02T12:59:40.026Z,99386.78
2018-06-02T13:02:09.800Z,99382.05
2018-06-02T13:04:39.476Z,99380.97
2018-06-02T13:07:09.039Z,99383.95
2018-06-02T13:09:38.605Z,99381.73
2018-06-02T13:12:08.159Z,99381.69
2018-06-02T13:14:37.754Z,99379.64
2018-06-02T13:17:07.508Z,99378.57
2018-06-02T13:19:37.067Z,99373.75
2018-06-02T13:22:06.639Z,99366.27
2018-06-02T13:24:36.208Z,99373.30
2018-06-02T13:27:05.783Z,99376.23
2018-06-02T13:29:35.354Z,99371.70
2018-06-02T13:32:05.049Z,99356.71
2018-06-02T13:34:34.603Z,99358.25
2018-06-02T13:37:04.190Z,99361.86
2018-06-02T13:39:33.747Z,99359.38
2018-06-02T13:42:03.095Z,99374.51
2018-06-02T13:44:32.671Z,99362.88
2018-06-02T13:47:02.225Z,99353.07
2018-06-02T13:49:31.800Z,99356.40
2018-06-02T13:52:01.340Z,99355.28
2018-06-02T13:54:31.684Z,99367.13
2018-06-02T13:57:01.278Z,99364.08
2018-06-02T13:59:30.845Z,99355.52
2018-06-02T14:02:00.408Z,99352.94
2018-06-02T14:04:30.042Z,99352.28
2018-06-02T14:06:59.640Z,99348.80
2018-06-02T14:09:29.330Z,99354.38
2018-06-02T14:11:58.894Z,99339.01
2018-06-02T14:14:28.448Z,99337.00
2018-06-02T14:16:58.022Z,99329.50
2018-06-02T14:19:27.576Z,99330.73
2018-06-02T14:21:57.220Z,99332.45
2018-06-02T14:24:26.922Z,99316.78
2018-06-02T14:26:56.509Z,99313.64
2018-06-02T14:29:26.066Z,99312.27
2018-06-02T14:31:55.640Z,99312.39
2018-06-02T14:34:25.478Z,99309.28
2018-06-02T14:36:55.315Z,99304.56
2018-06-02T14:39:25.831Z,99302.06
2018-06-02T14:41:55.156Z,99302.45
2018-06-02T14:44:24.848Z,99304.16
2018-06-02T14:46:54.390Z,99295.83
2018-06-02T14:49:24.017Z,99303.29
2018-06-02T14:51:53.764Z,99291.20
2018-06-02T14:54:23.360Z,99290.95
2018-06-02T14:56:52.949Z,99292.16
2018-06-02T14:59:22.496Z,99297.56
2018-06-02T15:01:52.052Z,99288.51
2018-06-02T15:04:21.616Z,99287.88
2018-06-02T15:06:51.247Z,99286.90
2018-06-02T15:09:20.807Z,99281.30
2018-06-02T15:11:50.377Z,99276.08
2018-06-02T15:14:20.164Z,99277.69
2018-06-02T15:16:49.712Z,99279.59
2018-06-02T15:19:19.647Z,99277.11
2018-06-02T15:21:49.204Z,99278.52
2018-06-02T15:24:18.785Z,99275.39
2018-06-02T15:26:48.470Z,99285.42
2018-06-02T15:29:18.046Z,99273.62
2018-06-02T15:31:47.595Z,99275.61
2018-06-02T15:34:17.186Z,99265.27
2018-06-02T15:36:46.738Z,99262.72
2018-06-02T15:39:16.281Z,99261.74
2018-06-02T15:41:45.859Z,99266.09
2018-06-02T15:44:15.428Z,99266.14
2018-06-02T15:46:45.028Z,99261.14
2018-06-02T15:49:14.645Z,99259.53
2018-06-02T15:51:44.191Z,99269.59
2018-06-02T15:54:13.771Z,99260.94
2018-06-02T15:56:43.460Z,99259.04
2018-06-02T15:59:13.018Z,99263.66
2018-06-02T16:01:42.588Z,99264.73
2018-06-02T16:04:12.228Z,99268.48
2018-06-02T16:06:41.782Z,99255.76
2018-06-02T16:09:11.334Z,99273.14
2018-06-02T16:11:41.007Z,99272.66
2018-06-02T16:14:10.643Z,99280.91
2018-06-02T16:16:40.263Z,99285.61
2018-06-02T16:19:09.816Z,99289.27
2018-06-02T16:21:39.078Z,99290.28
2018-06-02T16:24:08.971Z,99290.20
2018-06-02T16:26:38.546Z,99291.30
2018-06-02T16:29:08.103Z,99298.10
2018-06-02T16:31:37.672Z,99295.45
2018-06-02T16:34:07.235Z,99295.81
2018-06-02T16:36:36.794Z,99295.36
2018-06-02T16:39:05.807Z,99290.39
2018-06-02T16:41:35.370Z,99290.64
2018-06-02T16:44:04.963Z,99288.08
2018-06-02T16:46:34.255Z,99295.88
2018-06-02T16:49:03.635Z,99289.15
2018-06-02T16:51:32.959Z,99281.09
2018-06-02T16:54:02.569Z,99282.34
2018-06-02T16:56:31.843Z,99282.20
2018-06-02T16:59:01.406Z,99285.77
2018-06-02T17:01:30.974Z,99282.16
2018-06-02T17:04:00.210Z,99272.50
2018-06-02T17:06:29.529Z,99265.58
2018-06-02T17:08:59.094Z,99267.84
2018-06-02T17:11:28.655Z,99268.66
2018-06-02T17:13:57.931Z,99271.44
2018-06-02T17:16:27.715Z,99267.55
2018-06-02T17:18:56.995Z,99259.16
2018-06-02T17:21:26.695Z,99250.83
2018-06-02T17:23:55.965Z,99246.55
2018-06-02T17:26:25.543Z,99245.28
2018-06-02T17:28:54.811Z,99232.01
2018-06-02T17:31:24.095Z,99232.33
2018-06-02T17:33:53.566Z,99233.40
2018-06-02T17:36:22.914Z,99236.85
2018-06-02T17:38:52.503Z,99244.00
2018-06-02T17:41:21.800Z,99243.60
2018-06-02T17:43:51.359Z,99246.95
2018-06-02T17:46:20.823Z,99246.89
2018-06-02T17:48:50.127Z,99252.41
2018-06-02T17:51:19.403Z,99264.09
2018-06-02T17:53:48.708Z,99263.76
2018-06-02T17:56:18.034Z,99270.14
2018-06-02T17:58:47.316Z,99265.38
2018-06-02T18:01:16.591Z,99268.69
2018-06-02T18:03:45.707Z,99268.33
2018-06-02T18:06:14.986Z,99268.58
2018-06-02T18:08:44.267Z,99270.61
2018-06-02T18:11:13.829Z,99277.22
2018-06-02T18:13:43.108Z,99275.51
2018-06-02T18:16:12.741Z,99270.14
2018-06-02T18:18:42.029Z,99274.26
2018-06-02T18:21:11.318Z,99274.33
2018-06-02T18:23:40.605Z,99267.92
2018-06-02T18:26:09.909Z,99265.39
2018-06-02T18:28:39.194Z,99273.65
2018-06-02T18:31:08.478Z,99276.30
2018-06-02T18:33:37.782Z,99272.08
2018-06-02T18:36:07.062Z,99274.25
2018-06-02T18:38:36.342Z,99278.86
2018-06-02T18:41:05.630Z,99273.18
2018-06-02T18:43:34.923Z,99275.15
2018-06-02T18:46:04.244Z,99273.12
2018-06-02T18:48:33.575Z,99283.48
2018-06-02T18:51:02.852Z,99281.27
2018-06-02T18:53:32.141Z,99279.30
2018-06-02T18:56:01.897Z,99283.66
2018-06-02T18:58:31.267Z,99283.88
2018-06-02T19:01:00.603Z,99288.94
2018-06-02T19:03:30.067Z,99292.52
2018-06-02T19:05:59.366Z,99303.18
2018-06-02T19:08:28.969Z,99304.89
2018-06-02T19:10:58.234Z,99315.87
2018-06-02T19:13:27.516Z,99319.61
2018-06-02T19:15:56.802Z,99321.80
2018-06-02T19:18:26.338Z,99326.92
2018-06-02T19:20:55.399Z,99336.98
2018-06-02T19:23:24.696Z,99333.20
2018-06-02T19:25:53.968Z,99337.72
2018-06-02T19:28:23.259Z,99340.32
2018-06-02T19:30:52.556Z,99343.77
2018-06-02T19:33:21.982Z,99347.74
2018-06-02T19:35:51.291Z,99351.93
2018-06-02T19:38:20.567Z,99358.53
2018-06-02T19:40:49.843Z,99366.02
2018-06-02T19:43:19.183Z,99365.61
2018-06-02T19:45:48.584Z,99380.25
2018-06-02T19:48:17.929Z,99377.29
2018-06-02T19:50:47.357Z,99381.84
2018-06-02T19:53:16.658Z,99384.74
2018-06-02T19:55:45.943Z,99383.08
2018-06-02T19:58:15.272Z,99379.58
2018-06-02T20:00:44.566Z,99385.33
2018-06-02T20:03:13.864Z,99376.50
2018-06-02T20:05:43.143Z,99374.90
2018-06-02T20:08:12.437Z,99378.09
2018-06-02T20:10:41.790Z,99390.03
2018-06-02T20:13:11.082Z,99379.41
2018-06-02T20:15:40.375Z,99385.44
2018-06-02T20:18:09.646Z,99375.61
2018-06-02T20:20:38.948Z,99373.97
2018-06-02T20:23:08.235Z,99373.17
2018-06-02T20:25:37.651Z,99381.69
2018-06-02T20:28:06.931Z,99382.65
2018-06-02T20:30:36.219Z,99372.69
2018-06-02T20:33:05.206Z,99373.45
2018-06-02T20:35:34.484Z,99370.81
2018-06-02T20:38:03.456Z,99364.80
2018-06-02T20:40:32.739Z,99363.58
2018-06-02T20:43:02.007Z,99356.84
2018-06-02T20:45:31.600Z,99350.77
2018-06-02T20:48:00.888Z,99351.80
2018-06-02T20:50:30.355Z,99351.77
2018-06-02T20:52:59.643Z,99347.27
2018-06-02T20:55:28.936Z,99338.22
2018-06-02T20:57:58.262Z,99337.72
2018-06-02T21:00:27.528Z,99332.83
2018-06-02T21:02:56.810Z,99334.12
2018-06-02T21:05:26.266Z,99333.97
2018-06-02T21:07:55.583Z,99323.64
2018-06-02T21:10:25.031Z,99326.09
2018-06-02T21:12:54.326Z,99327.25
2018-06-02T21:15:23.614Z,99329.27
2018-06-02T21:17:52.886Z,99327.34
2018-06-02T21:20:22.177Z,99326.30
2018-06-02T21:22:51.451Z,99323.55
2018-06-02T21:25:20.724Z,99318.70
2018-06-02T21:27:50.039Z,99324.90
2018-06-02T21:30:19.307Z,99328.16
2018-06-02T21:32:48.614Z,99331.84
2018-06-02T21:35:17.899Z,99332.24
2018-06-02T21:37:47.791Z,99332.24
2018-06-02T21:40:17.071Z,99330.13
2018-06-02T21:42:46.376Z,99333.02
2018-06-02T21:45:15.425Z,99344.59
2018-06-02T21:47:44.711Z,99342.55
2018-06-02T21:50:14.034Z,99341.17
2018-06-02T21:52:43.314Z,99341.95
2018-06-02T21:55:12.609Z,99345.00
2018-06-02T21:57:41.930Z,99345.11
2018-06-02T22:00:11.343Z,99345.66
2018-06-02T22:02:40.629Z,99346.07
2018-06-02T22:05:09.934Z,99345.13
2018-06-02T22:07:39.006Z,99351.99
2018-06-02T22:10:08.343Z,99357.11
2018-06-02T22:12:37.699Z,99351.98
2018-06-02T22:15:06.988Z,99356.04
2018-06-02T22:17:36.286Z,99361.88
2018-06-02T22:20:05.550Z,99356.67
2018-06-02T22:22:34.929Z,99357.45
2018-06-02T22:25:03.937Z,99365.66
2018-06-02T22:27:33.217Z,99368.09
2018-06-02T22:30:02.507Z,99364.23
2018-06-02T22:32:31.783Z,99365.05
2018-06-02T22:35:01.057Z,99364.03
2018-06-02T22:37:30.399Z,99372.71
2018-06-02T22:39:59.675Z,99381.69
2018-06-02T22:42:29.051Z,99381.63
2018-06-02T22:44:58.357Z,99391.50
2018-06-02T22:47:27.687Z,99386.66
2018-06-02T22:49:57.036Z,99383.83
2018-06-02T22:52:26.137Z,99386.51
2018-06-02T22:54:55.116Z,99392.41
2018-06-02T22:57:24.134Z,99387.06
2018-06-02T22:59:53.098Z,99385.48
2018-06-02T23:02:22.106Z,99389.80
2018-06-02T23:04:50.784Z,99390.09
2018-06-02T23:07:19.575Z,99387.15
2018-06-02T23:09:48.581Z,99378.16
2018-06-02T23:12:17.580Z,99372.20
2018-06-02T23:14:46.607Z,99360.94
2018-06-02T23:17:15.650Z,99358.55
2018-06-02T23:19:44.646Z,99366.14
2018-06-02T23:25:48.716Z,99370.08
2018-06-02T23:28:18.322Z,99374.11
2018-06-02T23:30:48.033Z,99370.27
2018-06-02T23:33:17.907Z,99366.91
2018-06-02T23:35:47.637Z,99377.83
2018-06-02T23:38:17.237Z,99375.27
2018-06-02T23:40:46.747Z,99367.59
2018-06-02T23:43:16.352Z,99367.68
2018-06-02T23:45:45.936Z,99367.94
2018-06-02T23:48:15.670Z,99366.84
2018-06-02T23:50:45.295Z,99371.56
2018-06-02T23:53:15.026Z,99374.13
2018-06-02T23:55:45.119Z,99375.84
2018-06-02T23:58:14.938Z,99373.30
